METAR AND TAF INFORMATION
METAR FOR KONT
KONT 130830Z 28007KT 10SM FEW024 BKN037 13/07 A3002 RMK AO2 T01280072
KONT 130753Z 30008KT 10SM BKN024 BKN037 13/07 A3002 RMK AO2 SLP162 T01280072 401780106
KONT 130653Z 26006KT 10SM BKN024 12/07 A3002 RMK AO2 SLP163 T01220072
KONT 130605Z 26004KT 10SM BKN024 12/07 A3001 RMK AO2 T01170072
KONT 130553Z 25004KT 10SM FEW018 SCT034 12/07 A3001 RMK AO2 SLP160 T01220072 10156 20117 51010
KONT 130557Z 1306/1412 25007KT P6SM SCT025 BKN035
FM132200 22014G20KT 6SM -RA OVC025
FM140500 25007KT P6SM VCSH SCT025 BKN035

 AIRPORT MAP

 RUNWAY INFORMATION
Runway 08L Runway length 12198 ft Runway width 150 ft
Runway elevation 943 ft Runway displaced threshold 998 ft Runway heading 90
Runway 26R Runway length 12198 ft Runway width 150 ft
Runway elevation 930 ft Runway displaced threshold 0 ft Runway heading 270
Runway 08R Runway length 10200 ft Runway width 150 ft
Runway elevation 935 ft Runway displaced threshold 0 ft Runway heading 90
Runway 26L Runway length 10200 ft Runway width 150 ft
Runway elevation 924 ft Runway displaced threshold 0 ft Runway heading 270

 AIRPORT FREQUENCIES
Type A/D Name SOCAL APP/ Frequency 119.65 MHZ
Type ATIS Name ATIS Frequency 124.25 MHZ
Type CLD Name CLNC DEL Frequency 118.1 MHZ
Type GND Name GND Frequency 121.9 MHZ
Type TWR Name TWR Frequency 120.6 MHZ

 AIRPORT NEAR NAVIGATION AIDS
Type NDB Name Petis Frequency 397 KHZ

-